Jackson, NH

5:58 AM EDT on May 26, 2015 (GMT -0400)
Eastern Slopes Regional | | Change Station
CLOSE
Current Station
Airport
Location: Fryeburg,
Elevation: 453 ft
Nearby Weather Stations

Elev 453 ft 43.99 °N, 70.95 °W | Updated 4 minutes ago

Overcast
Overcast
67 °F
Feels Like 67 °F
N
9
Wind Variable Wind from WSW

Today
High -- | Low -- °F
--% Chance of Precip.
Yesterday
High -- | Low -- °F
Precip. -- in
5:08 AM 8:15 PM
First Quarter, 56% visible
Pressure 30.05 in
Visibility 10.0 miles
Clouds Few 11000 ft
Dew Point 60 °F
Humidity 79%
Rainfall 0.02 in
Snow Depth Not available.
UV 0 out of 12
Pollen 7.80 out of 12
Air Quality Not available.
Flu Activity Sporadic
METAR KIZG 260954Z AUTO 25008KT 10SM FEW110 19/16 A3005 RMK AO2 SLP175 T01940156

More Conditions Fewer Conditions

Pressure 30.05 in
Visibility 10.0 miles
Clouds Few 11000 ft
Dew Point 60 °F
Humidity 79%
Rainfall 0.02 in
Snow Depth Not available.
UV 0 out of 12
Pollen 7.80 out of 12
Air Quality Not available.
Flu Activity Sporadic
METAR KIZG 260954Z AUTO 25008KT 10SM FEW110 19/16 A3005 RMK AO2 SLP175 T01940156

More Conditions Fewer Conditions

10-Day Weather Forecast

Almanac

Astronomy

May. 26, 2015 Rise Set
Actual Time
Civil Twilight
Nautical Twilight
Astronomical Twilight
Moon
Length of Visible Light
Length of Day
Tomorrow will be .
, % of the Moon is Illuminated

Today's Extremes

State Highs State Lows

Community

WunderPhotos

Upload Photos

1,824,302 photos uploaded!

WunderBlogs® & News

Nearby

Air Quality

  Air Quality AQ Index Pollutant
Not available.

Snow Depth

Station Depth Elevation

Earthquake Activity

City Distance Mag. Time & Date
Minimum magnitude displayed is 2.5.

Coastal Water Temperatures

Place Temperature

Stations

Nearby Weather Stations

Station Location Temp. Windchill Dew Point Humidity Wind Precip. Elev Updated Type